Time;durP1;ratioP1;P1;durP2;ratioP2;P2;SDS_P1;SDS_P2;PMS_P1;PMS_P2;Temp;Humidity;BMP_temperature;BMP_pressure;BME280_temperature;BME280_humidity;BME280_pressure;Samples;Min_cycle;Max_cycle;Signal;HPM_P1;HPM_P2
2021/01/28 00:00:37;;;;;;;;;;;4.60;99.20;;;;;;4347261;33;31883;-75
2021/01/28 00:03:10;;;;;;;;;;;4.60;99.20;;;;;;4348879;33;20435;-74
2021/01/28 00:05:40;;;;;;;;;;;4.60;99.20;;;;;;4348125;33;36331;-74
2021/01/28 00:08:15;;;;;;;;;;;4.60;99.20;;;;;;4347555;33;20123;-74
2021/01/28 00:10:47;;;;;;;;;;;4.60;99.10;;;;;;4349094;33;20009;-74
2021/01/28 00:13:17;;;;;;;;;;;4.60;99.10;;;;;;4347937;33;20050;-74
2021/01/28 00:15:46;;;;;;;;;;;4.60;99.10;;;;;;4348028;33;25948;-74
2021/01/28 00:18:22;;;;;;;;;;;4.60;99.20;;;;;;4348873;33;20001;-74
2021/01/28 00:20:54;;;;;;;;;;;4.60;99.20;;;;;;4349014;32;20028;-74
2021/01/28 00:23:26;;;;;;;;;;;4.60;99.20;;;;;;4334508;33;31188;-74
2021/01/28 00:25:58;;;;;;;;;;;4.60;99.20;;;;;;4348758;33;20013;-74
2021/01/28 00:28:27;;;;;;;;;;;4.60;99.20;;;;;;4348878;33;20061;-74
2021/01/28 00:31:01;;;;;;;;;;;4.60;99.50;;;;;;4347623;33;20045;-74
2021/01/28 00:33:30;;;;;;;;;;;4.60;99.20;;;;;;4348887;33;20013;-74
2021/01/28 00:36:03;;;;;;;;;;;4.60;99.20;;;;;;4347380;33;20033;-74
2021/01/28 00:38:37;;;;;;;;;;;4.60;99.60;;;;;;4348177;33;28007;-74
2021/01/28 00:41:08;;;;;;;;;;;4.60;99.60;;;;;;4348713;33;20049;-74
2021/01/28 00:43:39;;;;;;;;;;;4.60;99.40;;;;;;4347876;33;29943;-74
2021/01/28 00:46:08;;;;;;;;;;;4.70;99.40;;;;;;4348076;32;20073;-74
2021/01/28 00:48:41;;;;;;;;;;;4.60;99.30;;;;;;4334899;33;20049;-75
2021/01/28 00:51:11;;;;;;;;;;;4.60;99.40;;;;;;4346541;33;34556;-74
2021/01/28 00:53:40;;;;;;;;;;;4.70;99.40;;;;;;4347371;33;27765;-74
2021/01/28 00:56:13;;;;;;;;;;;4.60;99.40;;;;;;4347436;33;20035;-74
2021/01/28 00:58:42;;;;;;;;;;;4.70;99.40;;;;;;4348312;33;20027;-74
2021/01/28 01:01:12;;;;;;;;;;;4.60;99.30;;;;;;4348202;33;20019;-74
2021/01/28 01:03:44;;;;;;;;;;;4.60;99.30;;;;;;4346626;33;23871;-74
2021/01/28 01:06:14;;;;;;;;;;;4.70;99.30;;;;;;4348039;33;20335;-74
2021/01/28 01:08:49;;;;;;;;;;;4.70;99.30;;;;;;4347563;32;31259;-74
2021/01/28 01:11:19;;;;;;;;;;;4.70;99.40;;;;;;4346954;33;20060;-74
2021/01/28 01:13:50;;;;;;;;;;;4.70;99.40;;;;;;4346320;33;24583;-75
2021/01/28 01:16:23;;;;;;;;;;;4.70;99.30;;;;;;4347587;33;24984;-74
2021/01/28 01:18:55;;;;;;;;;;;4.70;99.40;;;;;;4348049;33;20023;-74
2021/01/28 01:21:27;;;;;;;;;;;4.70;99.40;;;;;;4347085;33;20011;-74
2021/01/28 01:23:56;;;;;;;;;;;4.70;99.40;;;;;;4347314;33;27308;-74
2021/01/28 01:26:26;;;;;;;;;;;4.70;99.40;;;;;;4347910;33;20446;-74
2021/01/28 01:28:55;;;;;;;;;;;4.70;99.40;;;;;;4346001;33;29675;-74
2021/01/28 01:31:28;;;;;;;;;;;4.70;99.40;;;;;;4347755;33;20036;-74
2021/01/28 01:33:57;;;;;;;;;;;4.70;99.50;;;;;;4347358;32;23222;-74
2021/01/28 01:36:27;;;;;;;;;;;4.70;99.50;;;;;;4345774;33;32612;-74
2021/01/28 01:39:02;;;;;;;;;;;4.70;99.40;;;;;;4345745;33;36624;-74
2021/01/28 01:41:34;;;;;;;;;;;4.70;99.40;;;;;;4345940;33;25948;-74
2021/01/28 01:44:02;;;;;;;;;;;4.70;99.50;;;;;;4346890;33;29235;-74
2021/01/28 01:46:34;;;;;;;;;;;4.70;99.40;;;;;;4347449;33;20001;-74
2021/01/28 01:49:07;;;;;;;;;;;4.70;99.40;;;;;;4345476;33;26294;-74
2021/01/28 01:51:43;;;;;;;;;;;4.70;99.50;;;;;;4347645;33;20049;-74
2021/01/28 01:54:24;;;;;;;;;;;4.70;99.40;;;;;;4346858;33;27084;-74
2021/01/28 01:56:57;;;;;;;;;;;4.70;99.40;;;;;;4332978;33;30967;-74
2021/01/28 01:59:38;;;;;;;;;;;4.70;99.40;;;;;;4347497;33;20016;-74
2021/01/28 02:02:12;;;;;;;;;;;4.70;99.40;;;;;;4344732;33;41008;-74
2021/01/28 02:04:48;;;;;;;;;;;4.70;99.40;;;;;;4347478;33;20420;-74
2021/01/28 02:07:22;;;;;;;;;;;4.70;99.50;;;;;;4347321;33;20057;-74
2021/01/28 02:09:55;;;;;;;;;;;4.80;99.50;;;;;;4346086;33;20011;-74
2021/01/28 02:12:24;;;;;;;;;;;4.70;99.50;;;;;;4346447;32;24841;-74
2021/01/28 02:14:54;;;;;;;;;;;4.70;99.50;;;;;;4346210;33;21253;-74
2021/01/28 02:17:21;;;;;;;;;;;4.80;99.50;;;;;;4345950;33;28732;-74
2021/01/28 02:19:57;;;;;;;;;;;4.80;99.50;;;;;;4347185;33;20015;-74
2021/01/28 02:22:36;;;;;;;;;;;4.80;99.50;;;;;;4346215;33;20013;-75
2021/01/28 02:25:18;;;;;;;;;;;4.80;99.40;;;;;;4347226;33;20001;-74
2021/01/28 02:27:51;;;;;;;;;;;4.80;99.50;;;;;;4345787;33;20009;-74
2021/01/28 02:30:27;;;;;;;;;;;4.80;99.50;;;;;;4333419;33;20410;-74
2021/01/28 02:32:59;;;;;;;;;;;4.80;99.50;;;;;;4345935;33;20037;-75
2021/01/28 02:35:35;;;;;;;;;;;4.80;99.50;;;;;;4345898;33;20019;-74
2021/01/28 02:38:07;;;;;;;;;;;4.80;99.50;;;;;;4346944;33;20015;-74
2021/01/28 02:40:42;;;;;;;;;;;4.80;99.50;;;;;;4333279;33;20015;-74
2021/01/28 02:43:15;;;;;;;;;;;4.80;99.50;;;;;;4347120;33;20446;-74
2021/01/28 02:45:50;;;;;;;;;;;4.80;99.50;;;;;;4345884;33;20021;-74
2021/01/28 02:48:22;;;;;;;;;;;4.80;99.50;;;;;;4346986;33;20120;-74
2021/01/28 02:51:00;;;;;;;;;;;4.80;99.50;;;;;;4345924;33;19997;-74
2021/01/28 02:53:47;;;;;;;;;;;4.80;99.60;;;;;;4346334;33;20017;-74
2021/01/28 02:56:18;;;;;;;;;;;4.80;99.50;;;;;;4345470;33;43986;-74
2021/01/28 02:58:48;;;;;;;;;;;4.80;99.50;;;;;;4345533;33;37455;-74
2021/01/28 03:01:16;;;;;;;;;;;4.80;99.50;;;;;;4332192;33;20324;-75
2021/01/28 03:03:49;;;;;;;;;;;4.80;99.40;;;;;;4346845;33;20061;-74
2021/01/28 03:06:19;;;;;;;;;;;4.80;99.50;;;;;;4332592;33;28320;-74
2021/01/28 03:08:45;;;;;;;;;;;4.80;99.40;;;;;;4345438;33;20057;-75
2021/01/28 03:11:17;;;;;;;;;;;4.80;99.70;;;;;;4346856;33;20057;-74
2021/01/28 03:13:49;;;;;;;;;;;4.80;99.50;;;;;;4345744;33;29667;-74
2021/01/28 03:16:16;;;;;;;;;;;4.80;99.50;;;;;;4344940;33;20010;-74
2021/01/28 03:18:52;;;;;;;;;;;4.80;99.40;;;;;;4346415;33;20061;-74
2021/01/28 03:21:24;;;;;;;;;;;4.90;99.50;;;;;;4345629;33;26568;-74
2021/01/28 03:23:56;;;;;;;;;;;4.90;99.50;;;;;;4345691;33;39727;-74
2021/01/28 03:26:25;;;;;;;;;;;4.90;99.50;;;;;;4346596;33;20065;-74
2021/01/28 03:29:00;;;;;;;;;;;4.90;99.50;;;;;;4344161;33;34321;-74
2021/01/28 03:31:31;;;;;;;;;;;4.90;99.60;;;;;;4345051;33;20005;-74
2021/01/28 03:34:03;;;;;;;;;;;4.90;99.50;;;;;;4346536;33;20056;-74
2021/01/28 03:36:35;;;;;;;;;;;4.90;99.60;;;;;;4344977;33;36635;-74
2021/01/28 03:39:03;;;;;;;;;;;4.90;99.60;;;;;;4345462;33;39291;-74
2021/01/28 03:41:37;;;;;;;;;;;4.90;99.60;;;;;;4344058;33;29790;-74
2021/01/28 03:44:09;;;;;;;;;;;4.90;99.60;;;;;;4345575;33;32776;-74
2021/01/28 03:46:42;;;;;;;;;;;4.90;99.60;;;;;;4344567;33;19997;-74
2021/01/28 03:49:11;;;;;;;;;;;4.90;99.70;;;;;;4345468;33;34059;-74
2021/01/28 03:51:42;;;;;;;;;;;4.90;99.70;;;;;;4345669;33;24729;-74
2021/01/28 03:54:15;;;;;;;;;;;4.90;99.60;;;;;;4346457;33;20019;-74
2021/01/28 03:56:48;;;;;;;;;;;4.90;99.60;;;;;;4346357;33;20019;-74
2021/01/28 03:59:17;;;;;;;;;;;5.00;99.60;;;;;;4345210;33;20398;-74
2021/01/28 04:01:50;;;;;;;;;;;5.00;99.60;;;;;;4345580;33;21887;-74
2021/01/28 04:04:23;;;;;;;;;;;5.00;99.60;;;;;;4346447;33;20090;-74
2021/01/28 04:06:52;;;;;;;;;;;5.00;99.60;;;;;;4344162;33;32897;-74
2021/01/28 04:09:30;;;;;;;;;;;5.00;99.60;;;;;;4346393;33;20020;-74
2021/01/28 04:12:00;;;;;;;;;;;5.00;99.90;;;;;;4347381;33;29408;-74
2021/01/28 04:14:30;;;;;;;;;;;5.00;99.70;;;;;;4346489;33;33912;-74
2021/01/28 04:16:59;;;;;;;;;;;5.00;99.70;;;;;;4347657;33;29997;-74
2021/01/28 04:19:28;;;;;;;;;;;5.00;99.70;;;;;;4347891;33;31410;-74
2021/01/28 04:22:04;;;;;;;;;;;5.00;99.70;;;;;;4347822;33;20017;-74
2021/01/28 04:24:31;;;;;;;;;;;5.00;99.70;;;;;;4348012;33;38602;-74
2021/01/28 04:27:06;;;;;;;;;;;5.00;99.80;;;;;;4347857;33;20374;-74
2021/01/28 04:29:35;;;;;;;;;;;5.00;99.90;;;;;;4347559;33;37349;-74
2021/01/28 04:32:08;;;;;;;;;;;5.00;99.80;;;;;;4347408;33;20012;-74
2021/01/28 04:34:40;;;;;;;;;;;5.00;99.70;;;;;;4347647;33;38258;-74
2021/01/28 04:37:10;;;;;;;;;;;5.00;99.70;;;;;;4347604;33;32234;-74
2021/01/28 04:39:41;;;;;;;;;;;5.00;99.70;;;;;;4347777;33;20080;-74
2021/01/28 04:42:16;;;;;;;;;;;5.00;99.80;;;;;;4347606;33;38285;-74
2021/01/28 04:44:47;;;;;;;;;;;5.00;99.70;;;;;;4347489;33;20013;-74
2021/01/28 04:47:19;;;;;;;;;;;5.10;99.70;;;;;;4346840;33;20444;-74
2021/01/28 04:49:56;;;;;;;;;;;5.00;99.80;;;;;;4347913;33;20013;-74
2021/01/28 04:52:30;;;;;;;;;;;5.00;99.80;;;;;;4347419;33;19998;-74
2021/01/28 04:55:03;;;;;;;;;;;5.00;99.80;;;;;;4347105;33;20008;-74
2021/01/28 04:57:38;;;;;;;;;;;5.10;99.90;;;;;;4348448;33;20055;-74
2021/01/28 05:00:13;;;;;;;;;;;5.00;99.80;;;;;;4347381;33;20410;-74
2021/01/28 05:02:42;;;;;;;;;;;5.10;99.80;;;;;;4346851;33;36838;-74
2021/01/28 05:05:13;;;;;;;;;;;5.10;99.90;;;;;;4348387;33;20458;-74
2021/01/28 05:07:48;;;;;;;;;;;5.10;99.90;;;;;;4347610;33;27099;-74
2021/01/28 05:10:35;;;;;;;;;;;5.10;99.80;;;;;;4347127;33;20019;-74
2021/01/28 05:13:06;;;;;;;;;;;5.10;99.80;;;;;;4347202;33;19998;-74
2021/01/28 05:15:34;;;;;;;;;;;5.10;99.90;;;;;;4347472;33;27194;-74
2021/01/28 05:18:16;;;;;;;;;;;5.10;99.80;;;;;;4347092;33;20013;-74
2021/01/28 05:20:48;;;;;;;;;;;5.10;99.80;;;;;;4346798;33;20015;-74
2021/01/28 05:23:27;;;;;;;;;;;5.10;99.70;;;;;;4346106;33;20072;-74
2021/01/28 05:26:00;;;;;;;;;;;5.10;99.80;;;;;;4346904;33;20017;-74
2021/01/28 05:28:37;;;;;;;;;;;5.10;99.70;;;;;;4346914;33;20493;-74
2021/01/28 05:31:04;;;;;;;;;;;5.10;99.70;;;;;;4345624;33;42283;-74
2021/01/28 05:33:38;;;;;;;;;;;5.20;99.70;;;;;;4345345;33;33765;-74
2021/01/28 05:36:05;;;;;;;;;;;5.20;99.70;;;;;;4346907;33;27435;-74
2021/01/28 05:38:43;;;;;;;;;;;5.20;99.90;;;;;;4334372;33;20056;-74
2021/01/28 05:41:31;;;;;;;;;;;5.20;99.80;;;;;;4347838;33;20005;-74
2021/01/28 05:44:18;;;;;;;;;;;5.20;99.70;;;;;;4346539;33;20465;-74
2021/01/28 05:47:00;;;;;;;;;;;5.20;99.80;;;;;;4344171;32;20013;-74
2021/01/28 05:49:33;;;;;;;;;;;5.20;99.70;;;;;;4347726;33;20124;-74
2021/01/28 05:52:19;;;;;;;;;;;5.20;99.70;;;;;;4347656;33;20023;-75
2021/01/28 05:55:08;;;;;;;;;;;5.20;99.80;;;;;;4346115;33;20008;-74
2021/01/28 05:57:42;;;;;;;;;;;5.30;99.80;;;;;;4346265;32;39249;-74
2021/01/28 06:00:19;;;;;;;;;;;5.20;99.70;;;;;;4347368;33;20395;-75
2021/01/28 06:02:54;;;;;;;;;;;5.20;99.70;;;;;;4346993;33;20060;-74
2021/01/28 06:05:36;;;;;;;;;;;5.20;99.70;;;;;;4347379;33;20062;-75
2021/01/28 06:08:14;;;;;;;;;;;5.30;99.70;;;;;;4347013;33;20441;-75
2021/01/28 06:11:09;;;;;;;;;;;5.30;99.70;;;;;;4347118;33;20027;-75
2021/01/28 06:13:55;;;;;;;;;;;5.30;99.70;;;;;;4340431;33;20406;-75
2021/01/28 06:16:40;;;;;;;;;;;5.30;99.70;;;;;;4333927;33;20007;-74
2021/01/28 06:19:19;;;;;;;;;;;5.30;99.70;;;;;;4347411;33;20002;-75
2021/01/28 06:22:00;;;;;;;;;;;5.30;99.80;;;;;;4347220;33;20017;-74
2021/01/28 06:24:41;;;;;;;;;;;5.30;99.90;;;;;;4347054;33;20019;-74
2021/01/28 06:27:10;;;;;;;;;;;5.30;99.90;;;;;;4347119;32;20076;-74
2021/01/28 06:29:56;;;;;;;;;;;5.40;99.90;;;;;;4347107;33;20087;-74
2021/01/28 06:32:41;;;;;;;;;;;5.30;99.90;;;;;;4346782;33;20051;-74
2021/01/28 06:35:27;;;;;;;;;;;5.40;99.90;;;;;;4346591;33;20009;-74
2021/01/28 06:38:13;;;;;;;;;;;5.40;99.90;;;;;;4346805;33;20010;-74
2021/01/28 06:40:45;;;;;;;;;;;5.40;99.90;;;;;;4338490;32;20006;-74
2021/01/28 06:43:17;;;;;;;;;;;5.40;99.90;;;;;;4347028;33;20060;-74
2021/01/28 06:46:16;;;;;;;;;;;5.40;99.80;;;;;;4347004;33;20371;-75
2021/01/28 06:48:44;;;;;;;;;;;5.40;99.80;;;;;;4332375;32;20021;-74
2021/01/28 06:51:29;;;;;;;;;;;5.40;99.80;;;;;;4345648;33;20061;-74
2021/01/28 06:54:03;;;;;;;;;;;5.40;99.90;;;;;;4333410;33;20015;-74
2021/01/28 06:56:43;;;;;;;;;;;5.40;99.90;;;;;;4346840;33;20068;-75
2021/01/28 06:59:16;;;;;;;;;;;5.50;99.90;;;;;;4346020;33;20064;-74
2021/01/28 07:01:43;;;;;;;;;;;5.50;99.90;;;;;;4346593;33;20451;-74
2021/01/28 07:04:28;;;;;;;;;;;5.50;99.90;;;;;;4346912;33;20005;-74
2021/01/28 07:07:10;;;;;;;;;;;5.50;99.90;;;;;;4346422;33;20006;-74
2021/01/28 07:09:55;;;;;;;;;;;5.50;99.90;;;;;;4346231;33;20414;-74
2021/01/28 07:12:26;;;;;;;;;;;5.50;99.90;;;;;;4344561;33;41552;-75
2021/01/28 07:14:53;;;;;;;;;;;5.50;99.90;;;;;;4344752;33;32873;-74
2021/01/28 07:17:31;;;;;;;;;;;5.50;99.90;;;;;;4346705;33;20009;-74
2021/01/28 07:20:02;;;;;;;;;;;5.50;99.90;;;;;;4345856;33;35190;-74
2021/01/28 07:22:36;;;;;;;;;;;5.60;99.90;;;;;;4345476;33;32854;-74
2021/01/28 07:25:22;;;;;;;;;;;5.60;99.90;;;;;;4345833;33;30241;-74
2021/01/28 07:28:09;;;;;;;;;;;5.70;99.90;;;;;;4345242;33;44130;-74
2021/01/28 07:30:45;;;;;;;;;;;5.60;99.90;;;;;;4342924;33;20444;-75
2021/01/28 07:33:24;;;;;;;;;;;5.70;99.90;;;;;;4346557;33;20013;-74
2021/01/28 07:35:52;;;;;;;;;;;5.70;99.90;;;;;;4345438;33;40430;-74
2021/01/28 07:38:28;;;;;;;;;;;5.70;99.90;;;;;;4345659;33;29709;-75
2021/01/28 07:41:25;;;;;;;;;;;5.70;99.90;;;;;;4331866;33;42642;-74
2021/01/28 07:43:53;;;;;;;;;;;5.80;99.90;;;;;;4341314;33;35438;-75
2021/01/28 07:46:28;;;;;;;;;;;5.80;99.90;;;;;;4346424;33;37945;-74
2021/01/28 07:49:10;;;;;;;;;;;5.80;99.90;;;;;;4348426;33;31580;-75
2021/01/28 07:51:38;;;;;;;;;;;5.80;99.90;;;;;;4348690;33;35925;-75
2021/01/28 07:54:27;;;;;;;;;;;5.80;99.90;;;;;;4346589;33;44930;-74
2021/01/28 07:56:57;;;;;;;;;;;5.80;99.90;;;;;;4348536;33;24290;-74
2021/01/28 07:59:32;;;;;;;;;;;5.90;99.90;;;;;;4348496;32;20022;-75
2021/01/28 08:02:13;;;;;;;;;;;5.90;99.90;;;;;;4348394;33;20056;-75
2021/01/28 08:04:47;;;;;;;;;;;5.90;99.90;;;;;;4348226;33;20049;-75
2021/01/28 08:07:26;;;;;;;;;;;5.90;99.90;;;;;;4335830;33;19998;-75
2021/01/28 08:10:01;;;;;;;;;;;5.90;99.90;;;;;;4347827;33;20040;-75
2021/01/28 08:12:37;;;;;;;;;;;5.90;99.90;;;;;;4348044;33;20061;-75
2021/01/28 08:15:16;;;;;;;;;;;5.90;99.90;;;;;;4349263;32;19994;-74
2021/01/28 08:17:46;;;;;;;;;;;6.00;99.90;;;;;;4347771;33;20061;-74
2021/01/28 08:20:24;;;;;;;;;;;6.00;99.90;;;;;;4347823;33;20047;-75
2021/01/28 08:22:56;;;;;;;;;;;6.00;99.90;;;;;;4348966;32;20060;-75
2021/01/28 08:25:24;;;;;;;;;;;6.00;99.90;;;;;;4348872;32;20402;-74
2021/01/28 08:27:56;;;;;;;;;;;6.10;99.90;;;;;;4347636;33;20009;-74
2021/01/28 08:30:26;;;;;;;;;;;6.10;99.90;;;;;;4348899;33;20047;-74
2021/01/28 08:33:00;;;;;;;;;;;6.10;99.90;;;;;;4348571;33;20005;-75
2021/01/28 08:35:50;;;;;;;;;;;6.10;99.90;;;;;;4349000;32;20418;-75
2021/01/28 08:38:29;;;;;;;;;;;6.20;99.90;;;;;;4335461;33;20418;-75
2021/01/28 08:41:07;;;;;;;;;;;6.10;99.90;;;;;;4348755;33;20077;-74
2021/01/28 08:43:37;;;;;;;;;;;6.20;99.90;;;;;;4348669;33;20033;-75
2021/01/28 08:46:22;;;;;;;;;;;6.20;99.90;;;;;;4348592;33;20053;-74
2021/01/28 08:49:03;;;;;;;;;;;6.20;99.90;;;;;;4334963;33;20112;-75
2021/01/28 08:51:34;;;;;;;;;;;6.30;99.90;;;;;;4346972;33;20057;-75
2021/01/28 08:54:05;;;;;;;;;;;6.30;99.90;;;;;;4346951;33;20052;-75
2021/01/28 08:56:36;;;;;;;;;;;6.30;99.90;;;;;;4348429;33;20025;-74
2021/01/28 08:59:11;;;;;;;;;;;6.40;99.90;;;;;;4347304;33;20132;-75
2021/01/28 09:01:49;;;;;;;;;;;6.40;99.90;;;;;;4348204;33;20056;-74
2021/01/28 09:04:19;;;;;;;;;;;6.50;99.90;;;;;;4347184;33;20023;-75
2021/01/28 09:06:47;;;;;;;;;;;6.50;99.90;;;;;;4347766;33;20413;-75
2021/01/28 09:09:24;;;;;;;;;;;6.60;99.90;;;;;;4348573;33;20024;-75
2021/01/28 09:11:52;;;;;;;;;;;6.60;99.90;;;;;;4346166;33;31203;-74
2021/01/28 09:14:23;;;;;;;;;;;6.60;99.90;;;;;;4347088;33;39548;-75
2021/01/28 09:16:54;;;;;;;;;;;6.60;99.90;;;;;;4346903;33;20013;-75
2021/01/28 09:19:22;;;;;;;;;;;6.70;99.90;;;;;;4346294;33;20020;-75
2021/01/28 09:21:54;;;;;;;;;;;6.70;99.90;;;;;;4348050;33;20388;-75
2021/01/28 09:24:21;;;;;;;;;;;6.70;99.90;;;;;;4347040;33;20021;-75
2021/01/28 09:27:06;;;;;;;;;;;6.70;99.90;;;;;;4346695;33;20009;-75
2021/01/28 09:29:39;;;;;;;;;;;6.80;99.90;;;;;;4346978;33;20010;-75
2021/01/28 09:32:18;;;;;;;;;;;6.80;99.90;;;;;;4346435;33;20374;-75
2021/01/28 09:34:46;;;;;;;;;;;6.90;99.90;;;;;;4347503;33;20023;-75
2021/01/28 09:37:14;;;;;;;;;;;6.90;99.90;;;;;;4347568;33;19997;-75
2021/01/28 09:39:41;;;;;;;;;;;6.90;99.90;;;;;;4347464;33;20014;-76
2021/01/28 09:42:21;;;;;;;;;;;6.90;99.90;;;;;;4346440;33;20025;-75
2021/01/28 09:44:53;;;;;;;;;;;6.90;99.90;;;;;;4347272;33;20053;-76
2021/01/28 09:47:28;;;;;;;;;;;7.00;99.90;;;;;;4347533;33;20013;-75
2021/01/28 09:50:02;;;;;;;;;;;7.00;99.90;;;;;;4345583;33;38865;-75
2021/01/28 09:52:32;;;;;;;;;;;7.00;99.90;;;;;;4347415;33;20100;-75
2021/01/28 09:55:19;;;;;;;;;;;7.00;99.90;;;;;;4345171;33;27970;-76
2021/01/28 09:57:46;;;;;;;;;;;7.00;99.90;;;;;;4346074;33;20012;-76
2021/01/28 10:00:17;;;;;;;;;;;7.10;99.90;;;;;;4347110;33;20019;-76
2021/01/28 10:02:45;;;;;;;;;;;7.10;99.90;;;;;;4345966;33;20339;-76
2021/01/28 10:05:15;;;;;;;;;;;7.10;99.90;;;;;;4347171;33;20016;-76
2021/01/28 10:07:47;;;;;;;;;;;7.20;99.90;;;;;;4346256;33;20072;-76
2021/01/28 10:10:21;;;;;;;;;;;7.20;99.90;;;;;;4346899;33;20008;-76
2021/01/28 10:12:54;;;;;;;;;;;7.30;99.90;;;;;;4346344;33;20068;-75
2021/01/28 10:15:21;;;;;;;;;;;7.30;99.90;;;;;;4346207;33;20049;-75
2021/01/28 10:17:48;;;;;;;;;;;7.30;99.90;;;;;;4347325;33;20024;-75
2021/01/28 10:20:15;;;;;;;;;;;7.40;99.90;;;;;;4346811;33;20009;-75
2021/01/28 10:22:43;;;;;;;;;;;7.50;99.90;;;;;;4346869;33;20064;-75
2021/01/28 10:25:15;;;;;;;;;;;7.50;99.90;;;;;;4345687;33;20049;-74
2021/01/28 10:27:45;;;;;;;;;;;7.50;99.90;;;;;;4347179;33;20019;-76
2021/01/28 10:30:16;;;;;;;;;;;7.60;99.90;;;;;;4347332;33;20441;-75
2021/01/28 10:32:52;;;;;;;;;;;7.60;99.90;;;;;;4346162;33;20059;-75
2021/01/28 10:35:24;;;;;;;;;;;7.70;99.90;;;;;;4345794;33;20056;-75
2021/01/28 10:37:51;;;;;;;;;;;7.70;99.90;;;;;;4347178;33;20009;-76
2021/01/28 10:40:18;;;;;;;;;;;7.70;99.90;;;;;;4346986;33;20056;-76
2021/01/28 10:42:46;;;;;;;;;;;7.70;99.90;;;;;;4346504;33;20377;-76
2021/01/28 10:45:19;;;;;;;;;;;7.70;99.90;;;;;;4346563;33;20353;-76
2021/01/28 10:47:51;;;;;;;;;;;7.70;99.90;;;;;;4345386;33;20548;-76
2021/01/28 10:50:27;;;;;;;;;;;7.70;99.90;;;;;;4346128;33;20033;-75
2021/01/28 10:52:57;;;;;;;;;;;7.80;99.90;;;;;;4346918;33;20068;-75
2021/01/28 10:55:29;;;;;;;;;;;7.80;99.90;;;;;;4345308;33;20446;-75
2021/01/28 10:58:01;;;;;;;;;;;7.80;99.90;;;;;;4346781;33;20441;-75
2021/01/28 11:00:32;;;;;;;;;;;7.80;99.90;;;;;;4347076;33;20013;-75
2021/01/28 11:02:59;;;;;;;;;;;7.90;99.90;;;;;;4345341;33;20065;-75
2021/01/28 11:05:31;;;;;;;;;;;7.90;99.90;;;;;;4345669;33;20005;-75
2021/01/28 11:08:00;;;;;;;;;;;7.90;99.90;;;;;;4345626;33;20009;-75
2021/01/28 11:10:28;;;;;;;;;;;7.90;99.90;;;;;;4346219;33;20061;-75
2021/01/28 11:12:58;;;;;;;;;;;8.00;99.90;;;;;;4346226;33;20049;-75
2021/01/28 11:15:32;;;;;;;;;;;8.00;99.90;;;;;;4345141;33;20057;-75
2021/01/28 11:17:58;;;;;;;;;;;8.00;99.90;;;;;;4345693;33;20015;-75
2021/01/28 11:20:31;;;;;;;;;;;8.10;99.90;;;;;;4346891;33;20039;-75
2021/01/28 11:23:02;;;;;;;;;;;8.10;99.90;;;;;;4348712;33;20493;-75
2021/01/28 11:25:31;;;;;;;;;;;8.20;99.90;;;;;;4349596;33;20420;-75
2021/01/28 11:28:01;;;;;;;;;;;8.30;99.90;;;;;;4347980;33;20426;-75
2021/01/28 11:30:29;;;;;;;;;;;8.30;99.90;;;;;;4349504;33;20013;-75
2021/01/28 11:32:58;;;;;;;;;;;8.30;99.90;;;;;;4349204;33;20049;-75
2021/01/28 11:35:30;;;;;;;;;;;8.30;99.90;;;;;;4348529;32;43424;-75
2021/01/28 11:38:00;;;;;;;;;;;8.30;99.90;;;;;;4347942;33;38588;-75
2021/01/28 11:40:28;;;;;;;;;;;8.30;99.90;;;;;;4349516;33;20012;-75
2021/01/28 11:42:55;;;;;;;;;;;8.40;99.90;;;;;;4349255;33;20061;-75
2021/01/28 11:45:29;;;;;;;;;;;8.40;99.90;;;;;;4335950;33;20359;-76
2021/01/28 11:47:58;;;;;;;;;;;8.40;99.90;;;;;;4347425;33;33180;-76
2021/01/28 11:50:25;;;;;;;;;;;8.40;99.90;;;;;;4347865;33;36929;-76
2021/01/28 11:52:55;;;;;;;;;;;8.40;99.90;;;;;;4348133;33;26231;-76
2021/01/28 11:55:25;;;;;;;;;;;8.40;99.90;;;;;;4348243;33;39502;-76
2021/01/28 11:57:55;;;;;;;;;;;8.50;99.90;;;;;;4335786;33;20019;-76
2021/01/28 12:00:22;;;;;;;;;;;8.50;99.90;;;;;;4348249;32;36684;-76
2021/01/28 12:02:55;;;;;;;;;;;8.50;99.90;;;;;;4346609;33;32516;-76
2021/01/28 12:05:24;;;;;;;;;;;8.50;99.90;;;;;;4347777;33;31248;-76
2021/01/28 12:07:54;;;;;;;;;;;8.50;99.90;;;;;;4347256;33;25149;-76
2021/01/28 12:10:24;;;;;;;;;;;8.60;99.90;;;;;;4348236;33;35969;-76
2021/01/28 12:12:53;;;;;;;;;;;8.60;99.90;;;;;;4347501;33;41587;-76
2021/01/28 12:15:23;;;;;;;;;;;8.60;99.90;;;;;;4346402;33;37832;-76
2021/01/28 12:17:51;;;;;;;;;;;8.60;99.90;;;;;;4347336;33;25506;-76
2021/01/28 12:20:20;;;;;;;;;;;8.70;99.90;;;;;;4346990;33;35224;-76
2021/01/28 12:22:51;;;;;;;;;;;8.70;99.90;;;;;;4346530;33;36451;-76
2021/01/28 12:25:29;;;;;;;;;;;8.70;99.90;;;;;;4348083;33;30286;-76
2021/01/28 12:27:56;;;;;;;;;;;8.70;99.90;;;;;;4346226;33;43680;-76
2021/01/28 12:30:23;;;;;;;;;;;8.70;99.90;;;;;;4347791;33;37102;-76
2021/01/28 12:32:51;;;;;;;;;;;8.70;99.90;;;;;;4347283;33;34305;-75
2021/01/28 12:35:19;;;;;;;;;;;8.80;99.90;;;;;;4347530;33;40144;-76
2021/01/28 12:37:47;;;;;;;;;;;8.80;99.90;;;;;;4347281;33;42462;-76
2021/01/28 12:40:15;;;;;;;;;;;8.90;99.90;;;;;;4346769;33;41787;-75
2021/01/28 12:42:42;;;;;;;;;;;8.90;99.90;;;;;;4346951;33;42339;-76
2021/01/28 12:45:09;;;;;;;;;;;8.90;99.90;;;;;;4347296;33;30780;-75
2021/01/28 12:47:36;;;;;;;;;;;8.90;99.90;;;;;;4346919;33;40389;-75
2021/01/28 12:50:07;;;;;;;;;;;8.90;99.90;;;;;;4347150;33;20350;-75
2021/01/28 12:52:35;;;;;;;;;;;8.90;99.90;;;;;;4346176;33;40382;-75
2021/01/28 12:55:03;;;;;;;;;;;8.90;99.90;;;;;;4333681;33;36826;-75
2021/01/28 12:57:33;;;;;;;;;;;8.90;99.90;;;;;;4346752;33;20082;-76
2021/01/28 12:59:59;;;;;;;;;;;9.00;99.90;;;;;;4333588;33;37139;-76
2021/01/28 13:02:26;;;;;;;;;;;9.00;99.90;;;;;;4348044;33;20487;-76
2021/01/28 13:04:56;;;;;;;;;;;9.00;99.90;;;;;;4347216;33;24632;-76
2021/01/28 13:07:29;;;;;;;;;;;9.00;99.90;;;;;;4346867;33;20001;-75
2021/01/28 13:09:58;;;;;;;;;;;9.00;99.90;;;;;;4347454;33;29432;-75
2021/01/28 13:12:25;;;;;;;;;;;9.00;99.90;;;;;;4345829;33;30490;-75
2021/01/28 13:14:51;;;;;;;;;;;9.00;99.90;;;;;;4346881;33;28325;-75
2021/01/28 13:17:21;;;;;;;;;;;9.10;99.90;;;;;;4346530;33;40042;-75
2021/01/28 13:19:52;;;;;;;;;;;9.10;99.90;;;;;;4345999;33;32791;-76
2021/01/28 13:22:22;;;;;;;;;;;9.10;99.90;;;;;;4346327;33;25208;-75
2021/01/28 13:25:00;;;;;;;;;;;9.10;99.90;;;;;;4347325;32;30863;-76
2021/01/28 13:27:29;;;;;;;;;;;9.10;99.90;;;;;;4345520;33;40694;-76
2021/01/28 13:29:56;;;;;;;;;;;9.20;99.90;;;;;;4347100;33;30896;-76
2021/01/28 13:32:23;;;;;;;;;;;9.10;99.90;;;;;;4346727;33;31838;-75
2021/01/28 13:34:52;;;;;;;;;;;9.20;99.90;;;;;;4346200;33;43626;-75
2021/01/28 13:37:24;;;;;;;;;;;9.20;99.90;;;;;;4347302;32;20009;-75
2021/01/28 13:39:54;;;;;;;;;;;9.20;99.90;;;;;;4347351;33;21813;-75
2021/01/28 13:42:21;;;;;;;;;;;9.20;99.90;;;;;;4345782;33;29664;-75
2021/01/28 13:44:47;;;;;;;;;;;9.20;99.90;;;;;;4346091;33;24355;-75
2021/01/28 13:47:16;;;;;;;;;;;9.20;99.90;;;;;;4346826;33;32540;-75
2021/01/28 13:49:43;;;;;;;;;;;9.30;99.90;;;;;;4346522;33;32193;-75
2021/01/28 13:52:15;;;;;;;;;;;9.30;99.90;;;;;;4346848;33;34508;-75
2021/01/28 13:54:46;;;;;;;;;;;9.30;99.90;;;;;;4345973;33;20030;-75
2021/01/28 13:57:13;;;;;;;;;;;9.30;99.90;;;;;;4345103;33;35382;-75
2021/01/28 13:59:43;;;;;;;;;;;9.30;99.90;;;;;;4347275;33;20072;-75
2021/01/28 14:02:10;;;;;;;;;;;9.30;99.90;;;;;;4346165;33;41650;-75
2021/01/28 14:04:39;;;;;;;;;;;9.30;99.90;;;;;;4346431;33;31109;-76
2021/01/28 14:07:10;;;;;;;;;;;9.30;99.90;;;;;;4346462;33;37379;-76
2021/01/28 14:09:40;;;;;;;;;;;9.30;99.90;;;;;;4344716;33;42738;-76
2021/01/28 14:12:09;;;;;;;;;;;9.30;99.90;;;;;;4344759;33;39438;-76
2021/01/28 14:14:38;;;;;;;;;;;9.30;99.90;;;;;;4347594;32;20006;-76
2021/01/28 14:17:05;;;;;;;;;;;9.40;99.90;;;;;;4346025;33;40334;-76
2021/01/28 14:19:34;;;;;;;;;;;9.30;99.90;;;;;;4345551;33;43205;-76
2021/01/28 14:22:04;;;;;;;;;;;9.40;99.90;;;;;;4344432;33;43304;-77
2021/01/28 14:24:53;;;;;;;;;;;9.40;99.90;;;;;;4346072;32;34276;-76
2021/01/28 14:27:23;;;;;;;;;;;9.40;99.90;;;;;;4346228;33;24166;-76
2021/01/28 14:29:50;;;;;;;;;;;9.40;99.90;;;;;;4344900;33;32393;-76
2021/01/28 14:32:19;;;;;;;;;;;9.40;99.90;;;;;;4345904;33;40322;-76
2021/01/28 14:34:46;;;;;;;;;;;9.40;99.90;;;;;;4345992;33;37824;-76
2021/01/28 14:37:13;;;;;;;;;;;9.40;99.90;;;;;;4346121;33;33644;-76
2021/01/28 14:39:45;;;;;;;;;;;9.40;99.90;;;;;;4344571;33;32272;-76
2021/01/28 14:42:15;;;;;;;;;;;9.40;99.90;;;;;;4346639;33;20051;-76
2021/01/28 14:44:42;;;;;;;;;;;9.40;99.90;;;;;;4344338;33;35541;-76
2021/01/28 14:47:08;;;;;;;;;;;9.50;99.90;;;;;;4345903;33;36012;-76
2021/01/28 14:49:40;;;;;;;;;;;9.50;99.90;;;;;;4345468;33;36284;-76
2021/01/28 14:52:08;;;;;;;;;;;9.50;99.90;;;;;;4346137;33;28897;-76
2021/01/28 14:54:34;;;;;;;;;;;9.50;99.90;;;;;;4344867;33;34111;-76
2021/01/28 14:57:01;;;;;;;;;;;9.40;99.90;;;;;;4346471;33;20061;-76
2021/01/28 14:59:28;;;;;;;;;;;9.50;99.90;;;;;;4345538;33;26795;-77
2021/01/28 15:01:54;;;;;;;;;;;9.50;99.90;;;;;;4345309;33;31356;-76